createdAt,value
2022-09-30T00:01:52.106Z,14.10
2022-09-30T00:04:23.600Z,14.10
2022-09-30T00:06:53.646Z,14.20
2022-09-30T00:09:21.797Z,14.20
2022-09-30T00:11:49.275Z,14.20
2022-09-30T00:14:23.169Z,14.20
2022-09-30T00:16:50.959Z,14.20
2022-09-30T00:19:19.271Z,14.10
2022-09-30T00:21:46.835Z,14.10
2022-09-30T00:24:14.360Z,14.00
2022-09-30T00:26:41.851Z,14.00
2022-09-30T00:29:10.985Z,14.00
2022-09-30T00:31:38.571Z,14.00
2022-09-30T00:34:09.321Z,14.00
2022-09-30T00:36:43.996Z,13.90
2022-09-30T00:39:40.998Z,13.90
2022-09-30T00:42:14.356Z,13.90
2022-09-30T00:44:53.362Z,13.90
2022-09-30T00:47:52.072Z,13.90
2022-09-30T00:50:42.381Z,13.90
2022-09-30T00:53:15.710Z,14.00
2022-09-30T00:56:00.211Z,14.00
2022-09-30T00:58:45.202Z,14.00
2022-09-30T01:01:14.310Z,14.00
2022-09-30T01:03:50.248Z,13.90
2022-09-30T01:06:21.937Z,13.90
2022-09-30T01:08:49.894Z,13.90
2022-09-30T01:11:18.079Z,13.90
2022-09-30T01:13:50.648Z,13.90
2022-09-30T01:16:49.107Z,13.90
2022-09-30T01:19:40.328Z,13.90
2022-09-30T01:22:33.250Z,13.90
2022-09-30T01:25:21.941Z,13.90
2022-09-30T01:28:16.706Z,13.80
2022-09-30T01:31:17.958Z,13.90
2022-09-30T01:34:24.455Z,13.90
2022-09-30T01:37:37.685Z,13.80
2022-09-30T01:40:14.490Z,13.80
2022-09-30T01:43:17.079Z,13.70
2022-09-30T01:45:58.507Z,13.70
2022-09-30T01:48:44.439Z,13.60
2022-09-30T01:51:33.124Z,13.70
2022-09-30T01:54:18.339Z,13.70
2022-09-30T01:56:52.850Z,13.70
2022-09-30T01:59:32.489Z,13.70
2022-09-30T02:02:10.781Z,13.70
2022-09-30T02:04:47.513Z,13.70
2022-09-30T02:07:30.711Z,13.70
2022-09-30T02:10:12.476Z,13.70
2022-09-30T02:12:49.947Z,13.80
2022-09-30T02:15:26.655Z,13.80
2022-09-30T02:18:04.116Z,13.90
2022-09-30T02:20:38.339Z,13.90
2022-09-30T02:23:31.465Z,13.90
2022-09-30T02:26:10.390Z,13.80
2022-09-30T02:28:47.502Z,13.90
2022-09-30T02:31:17.416Z,13.90
2022-09-30T02:33:56.526Z,13.90
2022-09-30T02:36:38.171Z,14.00
2022-09-30T02:39:20.055Z,14.00
2022-09-30T02:42:00.443Z,14.00
2022-09-30T02:44:28.143Z,13.90
2022-09-30T02:47:11.400Z,13.90
2022-09-30T02:49:57.113Z,13.90
2022-09-30T02:52:47.114Z,13.90
2022-09-30T02:55:46.050Z,13.90
2022-09-30T02:58:21.487Z,13.80
2022-09-30T03:00:50.594Z,13.80
2022-09-30T03:03:22.803Z,13.80
2022-09-30T03:05:51.267Z,13.80
2022-09-30T03:08:18.992Z,13.80
2022-09-30T03:10:51.037Z,13.80
2022-09-30T03:13:40.040Z,13.80
2022-09-30T03:16:48.824Z,13.90
2022-09-30T03:19:49.369Z,13.90
2022-09-30T03:22:28.003Z,13.90
2022-09-30T03:25:29.026Z,13.90
2022-09-30T03:28:27.999Z,13.90
2022-09-30T03:31:17.142Z,13.90
2022-09-30T03:33:55.583Z,13.90
2022-09-30T03:36:36.872Z,13.90
2022-09-30T03:39:42.667Z,13.90
2022-09-30T03:42:40.512Z,13.80
2022-09-30T03:45:24.749Z,13.80
2022-09-30T03:47:59.140Z,13.70
2022-09-30T03:50:31.417Z,13.70
2022-09-30T03:52:58.981Z,13.80
2022-09-30T03:55:27.031Z,13.80
2022-09-30T03:57:54.570Z,13.80
2022-09-30T04:00:21.852Z,13.70
2022-09-30T04:02:49.108Z,13.80
2022-09-30T04:05:16.460Z,13.70
2022-09-30T04:07:43.808Z,13.70
2022-09-30T04:10:11.985Z,13.70
2022-09-30T04:12:39.179Z,13.60
2022-09-30T04:15:07.212Z,13.60
2022-09-30T04:17:34.412Z,13.60
2022-09-30T04:20:01.822Z,13.50
2022-09-30T04:22:29.070Z,13.50
2022-09-30T04:24:56.378Z,13.40
2022-09-30T04:27:23.592Z,13.40
2022-09-30T04:29:51.039Z,13.30
2022-09-30T04:32:21.510Z,13.30
2022-09-30T04:34:48.749Z,13.30
2022-09-30T04:37:16.263Z,13.30
2022-09-30T04:39:44.350Z,13.30
2022-09-30T04:42:12.238Z,13.30
2022-09-30T04:44:39.504Z,13.20
2022-09-30T04:47:12.128Z,13.30
2022-09-30T04:49:39.391Z,13.30
2022-09-30T04:52:06.619Z,13.40
2022-09-30T04:54:33.794Z,13.40
2022-09-30T04:57:00.954Z,13.40
2022-09-30T04:59:28.736Z,13.40
2022-09-30T05:01:56.085Z,13.40
2022-09-30T05:04:23.314Z,13.50
2022-09-30T05:06:50.592Z,13.50
2022-09-30T05:09:17.944Z,13.60
2022-09-30T05:11:45.230Z,13.60
2022-09-30T05:14:12.551Z,13.70
2022-09-30T05:16:39.886Z,13.70
2022-09-30T05:19:07.147Z,13.70
2022-09-30T05:21:35.597Z,13.70
2022-09-30T05:24:03.536Z,13.80
2022-09-30T05:26:30.845Z,13.80
2022-09-30T05:28:58.544Z,13.80
2022-09-30T05:31:27.175Z,13.80
2022-09-30T05:33:58.056Z,13.80
2022-09-30T05:36:25.895Z,13.80
2022-09-30T05:38:54.524Z,13.70
2022-09-30T05:41:22.146Z,13.70
2022-09-30T05:43:49.663Z,13.60
2022-09-30T05:46:19.370Z,13.50
2022-09-30T05:48:47.636Z,13.50
2022-09-30T05:51:15.375Z,13.50
2022-09-30T05:53:43.160Z,13.50
2022-09-30T05:56:11.497Z,13.50
2022-09-30T05:58:40.512Z,13.50
2022-09-30T06:01:15.940Z,13.50
2022-09-30T06:03:48.253Z,13.40
2022-09-30T06:06:16.863Z,13.40
2022-09-30T06:08:44.590Z,13.40
2022-09-30T06:11:19.161Z,13.40
2022-09-30T06:13:47.982Z,13.40
2022-09-30T06:16:18.551Z,13.40
2022-09-30T06:18:46.089Z,13.40
2022-09-30T06:21:17.685Z,13.40
2022-09-30T06:23:45.194Z,13.40
2022-09-30T06:26:14.425Z,13.30
2022-09-30T06:28:44.009Z,13.30
2022-09-30T06:31:12.197Z,13.30
2022-09-30T06:33:39.559Z,13.30
2022-09-30T06:36:07.260Z,13.30
2022-09-30T06:38:40.501Z,13.30
2022-09-30T06:41:08.601Z,13.30
2022-09-30T06:43:42.751Z,13.30
2022-09-30T06:46:30.571Z,13.30
2022-09-30T06:49:13.245Z,13.20
2022-09-30T06:51:48.359Z,13.20
2022-09-30T06:54:15.727Z,13.30
2022-09-30T06:56:44.102Z,13.30
2022-09-30T06:59:11.868Z,13.30
2022-09-30T07:01:39.156Z,13.30
2022-09-30T07:04:09.838Z,13.30
2022-09-30T07:06:39.173Z,13.30
2022-09-30T07:09:07.559Z,13.40
2022-09-30T07:11:37.581Z,13.40
2022-09-30T07:14:10.309Z,13.40
2022-09-30T07:16:38.633Z,13.40
2022-09-30T07:19:07.536Z,13.40
2022-09-30T07:21:34.855Z,13.50
2022-09-30T07:24:02.347Z,13.50
2022-09-30T07:26:31.023Z,13.60
2022-09-30T07:29:00.348Z,13.60
2022-09-30T07:31:33.080Z,13.70
2022-09-30T07:34:07.297Z,13.70
2022-09-30T07:36:39.421Z,13.80
2022-09-30T07:39:10.883Z,13.80
2022-09-30T07:41:40.918Z,13.90
2022-09-30T07:44:14.980Z,13.90
2022-09-30T07:46:44.704Z,13.90
2022-09-30T07:49:37.947Z,13.90
2022-09-30T07:52:05.510Z,13.90
2022-09-30T07:54:38.742Z,13.80
2022-09-30T07:57:10.854Z,13.90
2022-09-30T07:59:42.117Z,13.80
2022-09-30T08:02:19.101Z,13.90
2022-09-30T08:04:46.790Z,14.00
2022-09-30T08:07:16.526Z,14.10
2022-09-30T08:09:43.904Z,14.20
2022-09-30T08:12:11.585Z,14.30
2022-09-30T08:14:39.122Z,14.40
2022-09-30T08:17:06.497Z,14.40
2022-09-30T08:19:34.084Z,14.40
2022-09-30T08:24:31.284Z,14.60
2022-09-30T08:26:58.918Z,14.70
2022-09-30T08:32:13.739Z,14.80
2022-09-30T08:34:41.088Z,14.80
2022-09-30T08:37:10.280Z,14.90
2022-09-30T08:39:39.091Z,15.00
2022-09-30T08:42:50.609Z,15.20
2022-09-30T08:45:52.053Z,15.30
2022-09-30T08:49:21.568Z,15.40
2022-09-30T08:51:51.988Z,15.50
2022-09-30T08:54:25.548Z,15.50
2022-09-30T08:56:53.805Z,15.60
2022-09-30T08:59:45.891Z,15.60
2022-09-30T09:02:31.064Z,15.70
2022-09-30T09:05:05.114Z,15.80
2022-09-30T09:07:54.282Z,15.70
2022-09-30T09:10:28.574Z,15.70
2022-09-30T09:13:38.934Z,15.70
2022-09-30T09:16:27.610Z,15.80
2022-09-30T09:19:14.804Z,16.00
2022-09-30T09:22:02.736Z,16.10
2022-09-30T09:24:38.299Z,16.40
2022-09-30T09:27:35.863Z,16.50
2022-09-30T09:30:19.573Z,16.70
2022-09-30T09:33:12.677Z,17.00
2022-09-30T09:36:10.404Z,17.10
2022-09-30T09:39:03.993Z,17.20
2022-09-30T09:42:02.921Z,17.30
2022-09-30T09:45:14.504Z,17.40
2022-09-30T09:47:45.714Z,17.50
2022-09-30T09:51:11.694Z,17.50
2022-09-30T09:53:58.169Z,17.30
2022-09-30T09:56:34.559Z,17.10
2022-09-30T09:59:19.761Z,17.20
2022-09-30T10:01:53.622Z,17.30
2022-09-30T10:04:30.618Z,17.50
2022-09-30T10:07:14.395Z,17.30
2022-09-30T10:09:50.656Z,17.40
2022-09-30T10:12:27.389Z,17.30
2022-09-30T10:15:24.243Z,17.40
2022-09-30T10:17:59.569Z,17.50
2022-09-30T10:20:36.659Z,17.70
2022-09-30T10:23:21.042Z,17.70
2022-09-30T10:26:28.666Z,17.50
2022-09-30T10:29:00.315Z,17.40
2022-09-30T10:31:35.160Z,17.40
2022-09-30T10:34:22.247Z,17.40
2022-09-30T10:36:50.415Z,17.30
2022-09-30T10:39:36.516Z,17.40
2022-09-30T10:42:28.696Z,17.30
2022-09-30T10:45:09.479Z,17.50
2022-09-30T10:47:44.848Z,17.50
2022-09-30T10:50:21.435Z,17.50
2022-09-30T10:53:00.056Z,17.60
2022-09-30T10:55:42.721Z,17.60
2022-09-30T10:58:47.787Z,17.70
2022-09-30T11:01:44.183Z,17.70
2022-09-30T11:04:58.995Z,17.90
2022-09-30T11:07:42.728Z,17.80
2022-09-30T11:10:28.714Z,18.00
2022-09-30T11:13:10.662Z,18.00
2022-09-30T11:15:57.641Z,18.10
2022-09-30T11:19:16.332Z,18.20
2022-09-30T11:21:59.598Z,18.00
2022-09-30T11:24:46.070Z,18.00
2022-09-30T11:28:09.549Z,18.00
2022-09-30T11:30:57.257Z,17.90
2022-09-30T11:33:46.313Z,17.80
2022-09-30T11:37:01.054Z,17.70
2022-09-30T11:39:52.996Z,17.90
2022-09-30T11:42:36.488Z,17.90
2022-09-30T11:45:26.844Z,18.00
2022-09-30T11:48:33.101Z,18.20
2022-09-30T11:51:25.481Z,18.30
2022-09-30T11:54:43.768Z,18.20
2022-09-30T11:57:38.148Z,18.20
2022-09-30T12:00:21.491Z,18.10
2022-09-30T12:03:09.287Z,18.40
2022-09-30T12:05:50.009Z,18.40
2022-09-30T12:08:27.202Z,18.20
2022-09-30T12:11:00.264Z,18.20
2022-09-30T12:13:37.200Z,18.20
2022-09-30T12:16:20.038Z,18.30
2022-09-30T12:18:58.041Z,18.40
2022-09-30T12:21:54.181Z,18.50
2022-09-30T12:24:41.568Z,18.60
2022-09-30T12:27:30.637Z,18.70
2022-09-30T12:30:19.272Z,18.50
2022-09-30T12:33:20.070Z,18.30
2022-09-30T12:36:21.466Z,18.10
2022-09-30T12:39:36.543Z,18.20
2022-09-30T12:42:48.308Z,18.10
2022-09-30T12:45:45.483Z,18.00
2022-09-30T12:48:22.824Z,18.00
2022-09-30T12:50:58.066Z,18.00
2022-09-30T12:53:39.182Z,18.00
2022-09-30T12:56:10.665Z,18.00
2022-09-30T12:58:48.241Z,18.10
2022-09-30T13:01:27.882Z,18.00
2022-09-30T13:03:59.368Z,18.00
2022-09-30T13:06:47.947Z,18.00
2022-09-30T13:09:31.234Z,18.00
2022-09-30T13:11:59.012Z,18.10
2022-09-30T13:14:35.973Z,18.20
2022-09-30T13:17:10.281Z,18.20
2022-09-30T13:19:58.009Z,18.20
2022-09-30T13:22:30.831Z,18.20
2022-09-30T13:25:03.107Z,18.20
2022-09-30T13:27:47.057Z,18.10
2022-09-30T13:30:16.957Z,18.00
2022-09-30T13:33:02.434Z,17.90
2022-09-30T13:35:48.707Z,17.70
2022-09-30T13:38:33.382Z,17.70
2022-09-30T13:41:22.742Z,17.60
2022-09-30T13:44:14.004Z,17.50
2022-09-30T13:46:54.014Z,17.40
2022-09-30T13:50:00.258Z,17.40
2022-09-30T13:52:35.559Z,17.20
2022-09-30T13:55:38.898Z,17.20
2022-09-30T13:58:50.574Z,17.30
2022-09-30T14:01:48.184Z,17.20
2022-09-30T14:04:51.249Z,17.30
2022-09-30T14:07:54.687Z,17.20
2022-09-30T14:11:07.397Z,17.00
2022-09-30T14:14:15.135Z,16.90
2022-09-30T14:17:26.909Z,16.80
2022-09-30T14:20:23.012Z,16.70
2022-09-30T14:22:50.385Z,16.60
2022-09-30T14:25:21.745Z,16.60
2022-09-30T14:27:57.562Z,16.50
2022-09-30T14:30:27.411Z,16.50
2022-09-30T14:33:11.724Z,16.50
2022-09-30T14:35:42.024Z,16.50
2022-09-30T14:38:20.243Z,16.50
2022-09-30T14:40:57.315Z,16.60
2022-09-30T14:43:37.778Z,16.60
2022-09-30T14:46:34.544Z,16.60
2022-09-30T14:49:11.913Z,16.70
2022-09-30T14:51:47.184Z,16.70
2022-09-30T14:54:29.382Z,16.70
2022-09-30T14:57:00.612Z,16.70
2022-09-30T14:59:34.836Z,16.70
2022-09-30T15:02:18.605Z,16.70
2022-09-30T15:04:52.811Z,16.70
2022-09-30T15:07:20.459Z,16.70
2022-09-30T15:09:50.332Z,16.60
2022-09-30T15:12:22.345Z,16.60
2022-09-30T15:14:59.598Z,16.60
2022-09-30T15:17:38.535Z,16.60
2022-09-30T15:20:38.562Z,16.60
2022-09-30T15:23:18.918Z,16.60
2022-09-30T15:25:46.488Z,16.60
2022-09-30T15:28:15.029Z,16.60
2022-09-30T15:30:43.556Z,16.50
2022-09-30T15:33:20.083Z,16.50
2022-09-30T15:35:47.599Z,16.40
2022-09-30T15:38:24.814Z,16.30
2022-09-30T15:41:08.467Z,16.30
2022-09-30T15:43:45.323Z,16.30
2022-09-30T15:46:20.203Z,16.30
2022-09-30T15:48:48.909Z,16.20
2022-09-30T15:51:42.492Z,16.10
2022-09-30T15:54:27.359Z,16.10
2022-09-30T15:56:54.870Z,16.10
2022-09-30T15:59:23.161Z,16.00
2022-09-30T16:01:52.895Z,16.00
2022-09-30T16:04:23.063Z,16.00
2022-09-30T16:06:59.407Z,15.90
2022-09-30T16:09:41.868Z,15.90
2022-09-30T16:12:15.153Z,15.90
2022-09-30T16:14:51.209Z,15.80
2022-09-30T16:17:44.643Z,15.80
2022-09-30T16:20:15.292Z,15.80
2022-09-30T16:22:42.881Z,15.70
2022-09-30T16:25:31.738Z,15.70
2022-09-30T16:28:12.523Z,15.60
2022-09-30T16:30:52.538Z,15.60
2022-09-30T16:33:20.223Z,15.60
2022-09-30T16:35:48.757Z,15.50
2022-09-30T16:38:17.314Z,15.50
2022-09-30T16:40:44.671Z,15.50
2022-09-30T16:43:12.031Z,15.50
2022-09-30T16:45:41.656Z,15.50
2022-09-30T16:48:18.085Z,15.50
2022-09-30T16:51:06.467Z,15.50
2022-09-30T16:53:35.011Z,15.50
2022-09-30T16:56:02.304Z,15.40
2022-09-30T16:58:31.362Z,15.40
2022-09-30T17:01:02.407Z,15.40
2022-09-30T17:03:33.405Z,15.40
2022-09-30T17:06:02.317Z,15.40
2022-09-30T17:08:30.423Z,15.40
2022-09-30T17:10:57.925Z,15.50
2022-09-30T17:13:26.180Z,15.40
2022-09-30T17:15:53.617Z,15.40
2022-09-30T17:18:22.029Z,15.40
2022-09-30T17:20:58.565Z,15.40
2022-09-30T17:23:26.269Z,15.40
2022-09-30T17:25:54.999Z,15.40
2022-09-30T17:28:22.644Z,15.40
2022-09-30T17:30:50.573Z,15.40
2022-09-30T17:33:20.113Z,15.40
2022-09-30T17:36:02.654Z,15.30
2022-09-30T17:38:30.594Z,15.40
2022-09-30T17:41:16.585Z,15.30
2022-09-30T17:43:45.873Z,15.30
2022-09-30T17:46:31.068Z,15.20
2022-09-30T17:49:00.985Z,15.20
2022-09-30T17:51:28.397Z,15.20
2022-09-30T17:53:57.024Z,15.20
2022-09-30T17:56:24.393Z,15.20
2022-09-30T17:58:51.790Z,15.20
2022-09-30T18:01:21.651Z,15.20
2022-09-30T18:03:53.053Z,15.20
2022-09-30T18:06:21.261Z,15.10
2022-09-30T18:08:50.636Z,15.10
2022-09-30T18:11:23.155Z,15.10
2022-09-30T18:13:59.561Z,15.10
2022-09-30T18:16:30.896Z,15.10
2022-09-30T18:21:46.795Z,15.10
2022-09-30T18:24:14.316Z,15.10
2022-09-30T18:26:41.826Z,15.00
2022-09-30T18:29:09.276Z,15.00
2022-09-30T18:31:41.054Z,15.00
2022-09-30T18:34:13.281Z,15.00
2022-09-30T18:36:40.543Z,15.00
2022-09-30T18:39:07.902Z,15.00
2022-09-30T18:41:43.119Z,15.00
2022-09-30T18:44:12.685Z,15.00
2022-09-30T18:46:40.140Z,15.00
2022-09-30T18:49:07.465Z,15.00
2022-09-30T18:51:35.342Z,15.00
2022-09-30T18:54:04.128Z,15.10
2022-09-30T18:56:33.635Z,15.10
2022-09-30T18:59:04.685Z,15.10
2022-09-30T19:01:35.305Z,15.10
2022-09-30T19:04:04.169Z,15.10
2022-09-30T19:06:33.881Z,15.10
2022-09-30T19:09:01.961Z,15.10
2022-09-30T19:11:30.749Z,15.10
2022-09-30T19:14:03.587Z,15.10
2022-09-30T19:16:38.533Z,15.10
2022-09-30T19:19:10.552Z,15.00
2022-09-30T19:21:39.376Z,15.00
2022-09-30T19:24:09.073Z,15.00
2022-09-30T19:26:39.171Z,15.00
2022-09-30T19:29:10.647Z,15.00
2022-09-30T19:31:38.382Z,15.00
2022-09-30T19:34:06.338Z,15.00
2022-09-30T19:36:46.817Z,15.00
2022-09-30T19:39:18.167Z,15.00
2022-09-30T19:41:46.457Z,15.00
2022-09-30T19:44:19.019Z,15.00
2022-09-30T19:46:50.493Z,15.00
2022-09-30T19:49:18.892Z,15.00
2022-09-30T19:51:46.228Z,15.00
2022-09-30T19:54:13.669Z,15.00
2022-09-30T19:56:40.939Z,15.00
2022-09-30T19:59:08.208Z,14.90
2022-09-30T20:01:36.249Z,15.00
2022-09-30T20:04:05.482Z,15.00
2022-09-30T20:06:35.874Z,15.00
2022-09-30T20:09:05.941Z,14.90
2022-09-30T20:11:37.480Z,14.90
2022-09-30T20:14:26.550Z,14.90
2022-09-30T20:16:54.637Z,14.90
2022-09-30T20:19:23.317Z,14.90
2022-09-30T20:21:52.252Z,14.90
2022-09-30T20:24:19.768Z,14.90
2022-09-30T20:26:48.089Z,14.80
2022-09-30T20:29:15.657Z,14.80
2022-09-30T20:31:44.092Z,14.80
2022-09-30T20:34:15.488Z,14.70
2022-09-30T20:36:45.454Z,14.70
2022-09-30T20:39:12.886Z,14.60
2022-09-30T20:41:40.984Z,14.60
2022-09-30T20:44:16.156Z,14.60
2022-09-30T20:46:43.967Z,14.60
2022-09-30T20:49:11.291Z,14.60
2022-09-30T20:51:38.451Z,14.60
2022-09-30T20:54:06.052Z,14.60
2022-09-30T20:57:02.436Z,14.60
2022-09-30T20:59:21.019Z,14.60
2022-09-30T21:01:48.351Z,14.50
2022-09-30T21:04:15.836Z,14.50
2022-09-30T21:06:43.051Z,14.50
2022-09-30T21:09:13.402Z,14.50
2022-09-30T21:11:42.469Z,14.50
2022-09-30T21:14:10.128Z,14.50
2022-09-30T21:16:37.435Z,14.60
2022-09-30T21:19:07.089Z,14.50
2022-09-30T21:21:34.985Z,14.50
2022-09-30T21:24:02.784Z,14.50
2022-09-30T21:26:30.175Z,14.40
2022-09-30T21:28:57.509Z,14.40
2022-09-30T21:31:27.529Z,14.30
2022-09-30T21:33:59.964Z,14.30
2022-09-30T21:37:09.797Z,14.20
2022-09-30T21:39:57.339Z,14.20
2022-09-30T21:42:32.441Z,14.10
2022-09-30T21:44:59.850Z,14.20
2022-09-30T21:47:27.927Z,14.20
2022-09-30T21:49:57.537Z,14.10
2022-09-30T21:52:26.144Z,14.10
2022-09-30T21:54:55.851Z,14.00
2022-09-30T21:57:23.351Z,14.00
2022-09-30T21:59:51.084Z,13.90
2022-09-30T22:02:18.529Z,13.90
2022-09-30T22:04:46.059Z,13.90
2022-09-30T22:07:15.498Z,13.90
2022-09-30T22:09:44.391Z,13.90
2022-09-30T22:12:12.716Z,13.90
2022-09-30T22:14:39.895Z,13.90
2022-09-30T22:17:10.149Z,13.90
2022-09-30T22:19:38.174Z,14.00
2022-09-30T22:22:05.511Z,14.00
2022-09-30T22:24:33.094Z,14.10
2022-09-30T22:27:00.273Z,14.10
2022-09-30T22:29:27.699Z,14.10
2022-09-30T22:31:54.934Z,14.10
2022-09-30T22:34:41.091Z,14.10
2022-09-30T22:37:28.589Z,14.00
2022-09-30T22:40:00.902Z,14.00
2022-09-30T22:42:29.279Z,14.00
2022-09-30T22:44:56.526Z,13.90
2022-09-30T22:47:24.194Z,13.90
2022-09-30T22:49:51.447Z,13.90
2022-09-30T22:52:18.684Z,13.90
2022-09-30T22:54:46.007Z,13.90
2022-09-30T22:57:13.504Z,13.90
2022-09-30T22:59:41.887Z,13.90
2022-09-30T23:02:09.377Z,13.90
2022-09-30T23:04:36.820Z,13.90
2022-09-30T23:07:08.250Z,13.90
2022-09-30T23:09:36.183Z,13.90
2022-09-30T23:12:03.550Z,13.90
2022-09-30T23:14:30.904Z,13.90
2022-09-30T23:16:58.203Z,13.90
2022-09-30T23:19:25.570Z,13.90
2022-09-30T23:21:52.943Z,13.90
2022-09-30T23:24:20.152Z,13.90
2022-09-30T23:26:47.950Z,13.90
2022-09-30T23:29:15.967Z,14.00
2022-09-30T23:31:43.527Z,14.00
2022-09-30T23:34:10.828Z,14.00
2022-09-30T23:36:38.480Z,14.10
2022-09-30T23:39:20.901Z,14.10
2022-09-30T23:41:49.706Z,14.10
2022-09-30T23:44:20.193Z,14.10
2022-09-30T23:47:09.343Z,14.10
2022-09-30T23:49:36.687Z,14.10
2022-09-30T23:52:10.523Z,14.10
2022-09-30T23:54:42.152Z,14.10
2022-09-30T23:57:10.789Z,14.10
2022-09-30T23:59:38.639Z,14.10
